sensor_id;sensor_type;location;lat;lon;timestamp;pressure;altitude;pressure_sealevel;temperature;humidity
19783;BME280;10051;40.294;-3.754;2023-08-17T00:02:18;93938.63;;;29.68;19.90
19783;BME280;10051;40.294;-3.754;2023-08-17T00:04:44;93896.34;;;29.44;19.98
19783;BME280;10051;40.294;-3.754;2023-08-17T00:07:10;93936.28;;;29.67;20.16
19783;BME280;10051;40.294;-3.754;2023-08-17T00:09:35;93939.50;;;29.58;20.10
19783;BME280;10051;40.294;-3.754;2023-08-17T00:12:01;93938.78;;;29.54;20.48
19783;BME280;10051;40.294;-3.754;2023-08-17T00:14:31;93934.16;;;29.55;20.57
19783;BME280;10051;40.294;-3.754;2023-08-17T00:16:58;93919.63;;;29.41;20.32
19783;BME280;10051;40.294;-3.754;2023-08-17T00:19:24;93910.22;;;29.15;20.50
19783;BME280;10051;40.294;-3.754;2023-08-17T00:21:51;93939.44;;;29.31;20.50
19783;BME280;10051;40.294;-3.754;2023-08-17T00:24:22;93934.31;;;29.36;20.52
19783;BME280;10051;40.294;-3.754;2023-08-17T00:34:04;93936.69;;;29.34;20.69
19783;BME280;10051;40.294;-3.754;2023-08-17T00:36:43;93930.03;;;29.08;20.81
19783;BME280;10051;40.294;-3.754;2023-08-17T00:39:25;93930.97;;;28.90;21.30
19783;BME280;10051;40.294;-3.754;2023-08-17T00:42:07;93941.72;;;28.98;21.25
19783;BME280;10051;40.294;-3.754;2023-08-17T00:44:36;93913.31;;;28.75;21.59
19783;BME280;10051;40.294;-3.754;2023-08-17T00:47:01;93930.38;;;28.68;21.50
19783;BME280;10051;40.294;-3.754;2023-08-17T00:49:27;93911.38;;;28.33;21.99
19783;BME280;10051;40.294;-3.754;2023-08-17T00:51:53;93938.47;;;28.26;22.25
19783;BME280;10051;40.294;-3.754;2023-08-17T00:54:24;93939.34;;;28.09;22.93
19783;BME280;10051;40.294;-3.754;2023-08-17T00:56:51;93939.44;;;27.98;22.86
19783;BME280;10051;40.294;-3.754;2023-08-17T00:59:16;93920.97;;;27.85;23.01
19783;BME280;10051;40.294;-3.754;2023-08-17T01:01:43;93894.03;;;27.74;23.23
19783;BME280;10051;40.294;-3.754;2023-08-17T01:04:08;93937.69;;;28.26;22.76
19783;BME280;10051;40.294;-3.754;2023-08-17T01:06:34;93932.78;;;28.06;23.16
19783;BME280;10051;40.294;-3.754;2023-08-17T01:09:00;93946.03;;;27.89;23.59
19783;BME280;10051;40.294;-3.754;2023-08-17T01:11:36;93911.91;;;27.43;23.82
19783;BME280;10051;40.294;-3.754;2023-08-17T01:14:08;93929.66;;;27.44;23.59
19783;BME280;10051;40.294;-3.754;2023-08-17T01:16:42;93941.97;;;27.59;23.74
19783;BME280;10051;40.294;-3.754;2023-08-17T01:19:24;93906.53;;;27.50;23.56
19783;BME280;10051;40.294;-3.754;2023-08-17T01:21:50;93920.72;;;27.65;23.34
19783;BME280;10051;40.294;-3.754;2023-08-17T01:24:16;93941.84;;;27.81;23.36
19783;BME280;10051;40.294;-3.754;2023-08-17T01:26:42;93930.56;;;27.94;22.93
19783;BME280;10051;40.294;-3.754;2023-08-17T01:29:08;93910.16;;;27.85;23.29
19783;BME280;10051;40.294;-3.754;2023-08-17T01:31:42;93882.38;;;27.88;23.21
19783;BME280;10051;40.294;-3.754;2023-08-17T01:34:14;93924.66;;;28.13;23.35
19783;BME280;10051;40.294;-3.754;2023-08-17T01:36:47;93933.91;;;28.16;23.71
19783;BME280;10051;40.294;-3.754;2023-08-17T01:39:16;93935.41;;;28.20;23.83
19783;BME280;10051;40.294;-3.754;2023-08-17T01:41:43;93938.53;;;28.19;23.84
19783;BME280;10051;40.294;-3.754;2023-08-17T01:44:11;93900.00;;;28.04;23.50
19783;BME280;10051;40.294;-3.754;2023-08-17T01:46:37;93934.25;;;28.25;23.56
19783;BME280;10051;40.294;-3.754;2023-08-17T01:49:12;93941.16;;;28.26;23.01
19783;BME280;10051;40.294;-3.754;2023-08-17T01:51:57;93901.97;;;28.00;23.46
19783;BME280;10051;40.294;-3.754;2023-08-17T01:54:24;93936.63;;;28.16;23.37
19783;BME280;10051;40.294;-3.754;2023-08-17T01:57:10;93950.91;;;28.16;23.66
19783;BME280;10051;40.294;-3.754;2023-08-17T02:03:11;93948.25;;;28.05;23.70
19783;BME280;10051;40.294;-3.754;2023-08-17T02:05:45;93929.41;;;27.95;23.59
19783;BME280;10051;40.294;-3.754;2023-08-17T02:08:12;93904.75;;;27.85;23.63
19783;BME280;10051;40.294;-3.754;2023-08-17T02:10:39;93935.13;;;28.04;23.72
19783;BME280;10051;40.294;-3.754;2023-08-17T02:13:06;93929.03;;;27.93;24.07
19783;BME280;10051;40.294;-3.754;2023-08-17T02:19:23;93932.41;;;28.04;23.87
19783;BME280;10051;40.294;-3.754;2023-08-17T02:21:49;93917.09;;;27.86;23.91
19783;BME280;10051;40.294;-3.754;2023-08-17T02:24:15;93915.94;;;27.84;23.93
19783;BME280;10051;40.294;-3.754;2023-08-17T02:26:41;93916.34;;;27.82;23.92
19783;BME280;10051;40.294;-3.754;2023-08-17T02:29:07;93926.38;;;27.85;24.13
19783;BME280;10051;40.294;-3.754;2023-08-17T02:31:33;93907.88;;;27.80;24.17
19783;BME280;10051;40.294;-3.754;2023-08-17T02:33:58;93925.16;;;27.94;23.77
19783;BME280;10051;40.294;-3.754;2023-08-17T02:36:30;93903.19;;;27.88;23.95
19783;BME280;10051;40.294;-3.754;2023-08-17T02:38:56;93915.50;;;28.00;24.03
19783;BME280;10051;40.294;-3.754;2023-08-17T02:41:22;93894.41;;;27.77;23.77
19783;BME280;10051;40.294;-3.754;2023-08-17T02:43:47;93883.66;;;27.66;24.28
19783;BME280;10051;40.294;-3.754;2023-08-17T02:46:13;93913.25;;;27.87;23.86
19783;BME280;10051;40.294;-3.754;2023-08-17T02:48:39;93854.84;;;27.48;23.89
19783;BME280;10051;40.294;-3.754;2023-08-17T02:51:04;93884.03;;;27.68;23.80
19783;BME280;10051;40.294;-3.754;2023-08-17T02:53:30;93897.13;;;27.73;24.28
19783;BME280;10051;40.294;-3.754;2023-08-17T02:55:55;93924.00;;;27.95;24.28
19783;BME280;10051;40.294;-3.754;2023-08-17T02:58:21;93914.81;;;27.81;24.29
19783;BME280;10051;40.294;-3.754;2023-08-17T03:00:47;93922.09;;;27.88;24.34
19783;BME280;10051;40.294;-3.754;2023-08-17T03:03:12;93926.41;;;27.78;25.13
19783;BME280;10051;40.294;-3.754;2023-08-17T03:05:38;93886.31;;;26.84;26.85
19783;BME280;10051;40.294;-3.754;2023-08-17T03:08:04;93913.25;;;26.77;25.99
19783;BME280;10051;40.294;-3.754;2023-08-17T03:10:30;93917.50;;;26.78;25.71
19783;BME280;10051;40.294;-3.754;2023-08-17T03:12:57;93909.47;;;26.56;25.92
19783;BME280;10051;40.294;-3.754;2023-08-17T03:15:23;93925.66;;;26.45;26.32
19783;BME280;10051;40.294;-3.754;2023-08-17T03:17:49;93934.88;;;26.40;26.68
19783;BME280;10051;40.294;-3.754;2023-08-17T03:20:15;93928.69;;;26.04;26.85
19783;BME280;10051;40.294;-3.754;2023-08-17T03:22:43;93941.00;;;26.05;26.35
19783;BME280;10051;40.294;-3.754;2023-08-17T03:25:09;93879.38;;;25.52;26.41
19783;BME280;10051;40.294;-3.754;2023-08-17T03:27:37;93939.44;;;25.78;26.29
19783;BME280;10051;40.294;-3.754;2023-08-17T03:30:21;93938.66;;;25.78;26.31
19783;BME280;10051;40.294;-3.754;2023-08-17T03:32:51;93931.72;;;25.88;26.45
19783;BME280;10051;40.294;-3.754;2023-08-17T03:35:18;93925.63;;;26.12;25.91
19783;BME280;10051;40.294;-3.754;2023-08-17T03:37:52;93931.41;;;26.36;25.95
19783;BME280;10051;40.294;-3.754;2023-08-17T03:46:52;93944.88;;;26.51;25.88
19783;BME280;10051;40.294;-3.754;2023-08-17T03:49:27;93954.50;;;26.59;25.58
19783;BME280;10051;40.294;-3.754;2023-08-17T03:51:53;93922.97;;;26.38;26.02
19783;BME280;10051;40.294;-3.754;2023-08-17T03:54:19;93940.66;;;26.21;26.83
19783;BME280;10051;40.294;-3.754;2023-08-17T03:56:45;93893.66;;;25.82;26.84
19783;BME280;10051;40.294;-3.754;2023-08-17T03:59:11;93951.00;;;25.97;27.22
19783;BME280;10051;40.294;-3.754;2023-08-17T04:01:37;93897.84;;;25.61;27.01
19783;BME280;10051;40.294;-3.754;2023-08-17T04:04:03;93954.50;;;26.16;26.83
19783;BME280;10051;40.294;-3.754;2023-08-17T04:06:29;93954.13;;;26.21;26.74
19783;BME280;10051;40.294;-3.754;2023-08-17T04:08:55;93933.31;;;26.10;26.88
19783;BME280;10051;40.294;-3.754;2023-08-17T04:11:21;93956.72;;;25.84;27.07
19783;BME280;10051;40.294;-3.754;2023-08-17T04:13:47;93948.25;;;25.68;27.21
19783;BME280;10051;40.294;-3.754;2023-08-17T04:16:12;93945.19;;;25.80;26.90
19783;BME280;10051;40.294;-3.754;2023-08-17T04:18:38;93950.59;;;25.95;26.32
19783;BME280;10051;40.294;-3.754;2023-08-17T04:21:04;93927.53;;;25.90;25.86
19783;BME280;10051;40.294;-3.754;2023-08-17T04:23:30;93957.22;;;26.16;25.86
19783;BME280;10051;40.294;-3.754;2023-08-17T04:25:55;93927.19;;;26.13;26.28
19783;BME280;10051;40.294;-3.754;2023-08-17T04:28:21;93950.28;;;26.33;26.62
19783;BME280;10051;40.294;-3.754;2023-08-17T04:30:47;93880.22;;;25.96;26.56
19783;BME280;10051;40.294;-3.754;2023-08-17T04:33:12;93934.50;;;26.31;26.54
19783;BME280;10051;40.294;-3.754;2023-08-17T04:35:38;93935.66;;;26.37;26.66
19783;BME280;10051;40.294;-3.754;2023-08-17T04:38:04;93952.22;;;26.43;26.27
19783;BME280;10051;40.294;-3.754;2023-08-17T04:40:30;93956.44;;;26.37;26.83
19783;BME280;10051;40.294;-3.754;2023-08-17T04:42:57;93957.59;;;26.39;26.67
19783;BME280;10051;40.294;-3.754;2023-08-17T04:45:23;93950.66;;;26.35;26.70
19783;BME280;10051;40.294;-3.754;2023-08-17T04:47:52;93961.84;;;26.37;26.67
19783;BME280;10051;40.294;-3.754;2023-08-17T04:50:19;93958.38;;;26.22;27.04
19783;BME280;10051;40.294;-3.754;2023-08-17T04:52:49;93962.97;;;26.21;26.97
19783;BME280;10051;40.294;-3.754;2023-08-17T04:55:15;93970.31;;;26.21;26.98
19783;BME280;10051;40.294;-3.754;2023-08-17T04:57:41;93957.53;;;26.03;26.96
19783;BME280;10051;40.294;-3.754;2023-08-17T05:10:09;93980.63;;;26.04;26.16
19783;BME280;10051;40.294;-3.754;2023-08-17T05:12:35;93974.84;;;25.95;26.19
19783;BME280;10051;40.294;-3.754;2023-08-17T05:15:17;93961.72;;;25.75;26.20
19783;BME280;10051;40.294;-3.754;2023-08-17T05:17:52;93978.28;;;25.84;26.28
19783;BME280;10051;40.294;-3.754;2023-08-17T05:20:20;93955.94;;;25.77;26.13
19783;BME280;10051;40.294;-3.754;2023-08-17T05:22:47;93930.94;;;25.69;26.12
19783;BME280;10051;40.294;-3.754;2023-08-17T05:25:13;93916.69;;;25.65;25.85
19783;BME280;10051;40.294;-3.754;2023-08-17T05:27:40;93967.53;;;25.99;26.01
19783;BME280;10051;40.294;-3.754;2023-08-17T05:30:06;93976.78;;;26.05;25.84
19783;BME280;10051;40.294;-3.754;2023-08-17T05:32:32;93927.91;;;25.81;25.95
19783;BME280;10051;40.294;-3.754;2023-08-17T05:34:58;93976.41;;;26.10;25.90
19783;BME280;10051;40.294;-3.754;2023-08-17T05:37:23;93977.94;;;26.11;25.98
19783;BME280;10051;40.294;-3.754;2023-08-17T05:39:49;93965.22;;;25.94;25.96
19783;BME280;10051;40.294;-3.754;2023-08-17T05:42:15;93960.63;;;25.94;25.89
19783;BME280;10051;40.294;-3.754;2023-08-17T05:44:41;93994.53;;;26.13;25.91
19783;BME280;10051;40.294;-3.754;2023-08-17T05:47:07;94004.91;;;26.11;26.01
19783;BME280;10051;40.294;-3.754;2023-08-17T05:49:32;93976.66;;;25.54;26.95
19783;BME280;10051;40.294;-3.754;2023-08-17T05:51:58;94013.91;;;25.45;27.57
19783;BME280;10051;40.294;-3.754;2023-08-17T05:54:23;93960.59;;;24.99;27.59
19783;BME280;10051;40.294;-3.754;2023-08-17T05:56:49;94008.84;;;25.33;27.56
19783;BME280;10051;40.294;-3.754;2023-08-17T05:59:15;93987.31;;;25.40;27.43
19783;BME280;10051;40.294;-3.754;2023-08-17T06:01:40;93970.38;;;25.29;27.68
19783;BME280;10051;40.294;-3.754;2023-08-17T06:04:06;94006.94;;;25.41;27.63
19783;BME280;10051;40.294;-3.754;2023-08-17T06:06:33;94018.59;;;25.59;27.58
19783;BME280;10051;40.294;-3.754;2023-08-17T06:08:59;94012.53;;;25.10;28.89
19783;BME280;10051;40.294;-3.754;2023-08-17T06:11:24;93974.97;;;24.65;28.91
19783;BME280;10051;40.294;-3.754;2023-08-17T06:13:50;93982.59;;;24.56;29.40
19783;BME280;10051;40.294;-3.754;2023-08-17T06:16:16;94024.25;;;24.80;29.68
19783;BME280;10051;40.294;-3.754;2023-08-17T06:18:42;94017.53;;;24.56;29.90
19783;BME280;10051;40.294;-3.754;2023-08-17T06:21:08;94000.31;;;24.19;29.57
19783;BME280;10051;40.294;-3.754;2023-08-17T06:23:34;94019.38;;;24.48;29.18
19783;BME280;10051;40.294;-3.754;2023-08-17T06:26:00;94028.03;;;24.72;28.20
19783;BME280;10051;40.294;-3.754;2023-08-17T06:28:33;94023.13;;;24.81;28.63
19783;BME280;10051;40.294;-3.754;2023-08-17T06:31:05;94003.34;;;24.62;28.44
19783;BME280;10051;40.294;-3.754;2023-08-17T06:33:32;93960.59;;;24.43;28.14
19783;BME280;10051;40.294;-3.754;2023-08-17T06:35:58;94015.78;;;24.78;27.64
19783;BME280;10051;40.294;-3.754;2023-08-17T06:59:47;94030.75;;;26.67;27.02
19783;BME280;10051;40.294;-3.754;2023-08-17T07:02:13;94038.09;;;26.88;26.76
19783;BME280;10051;40.294;-3.754;2023-08-17T07:04:39;94041.19;;;26.90;26.56
19783;BME280;10051;40.294;-3.754;2023-08-17T07:07:05;94041.97;;;26.94;26.12
19783;BME280;10051;40.294;-3.754;2023-08-17T07:09:31;94046.97;;;26.92;26.21
19783;BME280;10051;40.294;-3.754;2023-08-17T07:11:57;94032.31;;;26.75;26.02
19783;BME280;10051;40.294;-3.754;2023-08-17T07:14:22;94043.47;;;26.77;26.14
19783;BME280;10051;40.294;-3.754;2023-08-17T07:16:48;94012.66;;;26.60;25.71
19783;BME280;10051;40.294;-3.754;2023-08-17T07:19:13;94029.66;;;26.82;25.48
19783;BME280;10051;40.294;-3.754;2023-08-17T07:21:39;94044.63;;;27.16;25.34
19783;BME280;10051;40.294;-3.754;2023-08-17T07:24:12;94011.91;;;26.99;25.38
19783;BME280;10051;40.294;-3.754;2023-08-17T07:26:38;94049.97;;;27.59;24.66
19783;BME280;10051;40.294;-3.754;2023-08-17T07:29:04;94044.50;;;27.78;23.82
19783;BME280;10051;40.294;-3.754;2023-08-17T07:31:30;94048.25;;;27.98;23.94
19783;BME280;10051;40.294;-3.754;2023-08-17T07:33:56;94037.41;;;28.05;24.58
19783;BME280;10051;40.294;-3.754;2023-08-17T07:36:22;94043.97;;;28.04;24.58
19783;BME280;10051;40.294;-3.754;2023-08-17T07:38:47;94033.50;;;28.10;24.54
19783;BME280;10051;40.294;-3.754;2023-08-17T07:41:13;94039.22;;;28.34;24.66
19783;BME280;10051;40.294;-3.754;2023-08-17T07:43:39;94040.81;;;28.20;24.24
19783;BME280;10051;40.294;-3.754;2023-08-17T07:46:05;93995.44;;;27.86;24.19
19783;BME280;10051;40.294;-3.754;2023-08-17T07:48:31;94013.09;;;28.05;23.91
19783;BME280;10051;40.294;-3.754;2023-08-17T07:50:59;94013.06;;;28.16;23.62
19783;BME280;10051;40.294;-3.754;2023-08-17T07:53:25;94054.16;;;28.49;23.40
19783;BME280;10051;40.294;-3.754;2023-08-17T07:55:51;94063.34;;;28.63;23.71
19783;BME280;10051;40.294;-3.754;2023-08-17T07:58:17;94013.59;;;28.49;22.74
19783;BME280;10051;40.294;-3.754;2023-08-17T08:00:49;94061.31;;;28.82;22.98
19783;BME280;10051;40.294;-3.754;2023-08-17T08:04:01;94056.31;;;28.73;23.20
19783;BME280;10051;40.294;-3.754;2023-08-17T08:10:11;94031.34;;;29.03;22.92
19783;BME280;10051;40.294;-3.754;2023-08-17T08:12:44;94051.44;;;29.48;22.95
19783;BME280;10051;40.294;-3.754;2023-08-17T08:15:10;94058.31;;;29.56;22.60
19783;BME280;10051;40.294;-3.754;2023-08-17T08:17:42;94030.66;;;29.37;22.49
19783;BME280;10051;40.294;-3.754;2023-08-17T08:20:11;94039.56;;;29.38;22.36
19783;BME280;10051;40.294;-3.754;2023-08-17T08:22:37;94030.72;;;29.27;22.42
19783;BME280;10051;40.294;-3.754;2023-08-17T08:25:03;94034.22;;;29.27;22.82
19783;BME280;10051;40.294;-3.754;2023-08-17T08:27:32;94052.84;;;29.60;22.52
19783;BME280;10051;40.294;-3.754;2023-08-17T08:29:58;94045.94;;;29.55;22.44
19783;BME280;10051;40.294;-3.754;2023-08-17T08:32:24;94055.44;;;29.71;22.98
19783;BME280;10051;40.294;-3.754;2023-08-17T08:34:49;94051.44;;;29.82;22.34
19783;BME280;10051;40.294;-3.754;2023-08-17T08:37:15;94059.78;;;29.95;22.64
19783;BME280;10051;40.294;-3.754;2023-08-17T08:39:54;94018.25;;;29.75;22.38
19783;BME280;10051;40.294;-3.754;2023-08-17T08:42:21;93957.03;;;29.50;22.01
19783;BME280;10051;40.294;-3.754;2023-08-17T08:44:48;94031.81;;;30.06;22.48
19783;BME280;10051;40.294;-3.754;2023-08-17T08:47:15;94046.50;;;30.36;22.33
19783;BME280;10051;40.294;-3.754;2023-08-17T08:50:01;94026.81;;;30.32;22.02
19783;BME280;10051;40.294;-3.754;2023-08-17T08:52:35;94054.03;;;30.52;21.75
19783;BME280;10051;40.294;-3.754;2023-08-17T08:55:11;94057.09;;;30.81;21.98
19783;BME280;10051;40.294;-3.754;2023-08-17T08:57:41;94068.31;;;31.07;21.80
19783;BME280;10051;40.294;-3.754;2023-08-17T09:00:07;94071.50;;;31.02;21.55
19783;BME280;10051;40.294;-3.754;2023-08-17T09:02:33;94067.72;;;30.96;21.87
19783;BME280;10051;40.294;-3.754;2023-08-17T09:05:00;94072.41;;;31.19;21.49
19783;BME280;10051;40.294;-3.754;2023-08-17T09:07:29;94071.00;;;31.35;21.13
19783;BME280;10051;40.294;-3.754;2023-08-17T09:09:55;94071.50;;;31.50;20.96
19783;BME280;10051;40.294;-3.754;2023-08-17T09:12:21;94082.38;;;31.50;20.79
19783;BME280;10051;40.294;-3.754;2023-08-17T09:14:47;94088.22;;;31.24;21.39
19783;BME280;10051;40.294;-3.754;2023-08-17T09:17:13;94080.50;;;31.23;21.68
19783;BME280;10051;40.294;-3.754;2023-08-17T09:19:39;94086.03;;;31.39;21.04
19783;BME280;10051;40.294;-3.754;2023-08-17T09:22:05;94085.69;;;31.37;21.64
19783;BME280;10051;40.294;-3.754;2023-08-17T09:24:34;94088.00;;;31.59;21.34
19783;BME280;10051;40.294;-3.754;2023-08-17T09:27:04;94087.75;;;31.73;20.76
19783;BME280;10051;40.294;-3.754;2023-08-17T09:29:31;94083.16;;;31.91;20.28
19783;BME280;10051;40.294;-3.754;2023-08-17T09:32:06;94089.72;;;31.93;20.47
19783;BME280;10051;40.294;-3.754;2023-08-17T09:34:33;94086.09;;;32.00;20.93
19783;BME280;10051;40.294;-3.754;2023-08-17T09:37:03;94080.97;;;32.22;20.27
19783;BME280;10051;40.294;-3.754;2023-08-17T09:39:30;94083.69;;;32.42;20.52
19783;BME280;10051;40.294;-3.754;2023-08-17T09:41:56;94085.66;;;32.58;20.68
19783;BME280;10051;40.294;-3.754;2023-08-17T09:44:28;94079.88;;;32.73;20.14
19783;BME280;10051;40.294;-3.754;2023-08-17T09:46:57;94072.63;;;32.86;19.87
19783;BME280;10051;40.294;-3.754;2023-08-17T09:49:37;94082.63;;;33.06;19.36
19783;BME280;10051;40.294;-3.754;2023-08-17T09:52:07;94066.13;;;32.97;19.95
19783;BME280;10051;40.294;-3.754;2023-08-17T09:54:35;94057.94;;;32.80;19.90
19783;BME280;10051;40.294;-3.754;2023-08-17T09:57:02;94013.63;;;32.46;19.36
19783;BME280;10051;40.294;-3.754;2023-08-17T09:59:29;94066.19;;;32.76;19.07
19783;BME280;10051;40.294;-3.754;2023-08-17T10:02:02;94077.50;;;32.58;20.29
19783;BME280;10051;40.294;-3.754;2023-08-17T10:04:31;94075.28;;;32.70;19.92
19783;BME280;10051;40.294;-3.754;2023-08-17T10:07:03;94072.66;;;32.83;19.65
19783;BME280;10051;40.294;-3.754;2023-08-17T10:09:39;94072.00;;;33.12;19.66
19783;BME280;10051;40.294;-3.754;2023-08-17T10:12:10;94044.22;;;33.17;19.56
19783;BME280;10051;40.294;-3.754;2023-08-17T10:14:44;94070.81;;;33.59;19.30
19783;BME280;10051;40.294;-3.754;2023-08-17T10:17:15;94055.47;;;33.65;18.71
19783;BME280;10051;40.294;-3.754;2023-08-17T10:19:47;94061.53;;;33.86;19.05
19783;BME280;10051;40.294;-3.754;2023-08-17T10:24:51;94018.75;;;33.70;18.70
19783;BME280;10051;40.294;-3.754;2023-08-17T10:27:20;94036.94;;;34.02;19.00
19783;BME280;10051;40.294;-3.754;2023-08-17T10:29:46;94053.31;;;34.28;18.87
19783;BME280;10051;40.294;-3.754;2023-08-17T10:32:13;94036.84;;;34.19;18.77
19783;BME280;10051;40.294;-3.754;2023-08-17T10:34:40;94049.84;;;34.40;18.23
19783;BME280;10051;40.294;-3.754;2023-08-17T10:37:07;94021.78;;;34.27;18.59
19783;BME280;10051;40.294;-3.754;2023-08-17T10:39:33;94032.94;;;34.46;18.38
19783;BME280;10051;40.294;-3.754;2023-08-17T10:42:00;94032.84;;;34.62;18.12
19783;BME280;10051;40.294;-3.754;2023-08-17T10:44:46;94058.13;;;34.89;18.53
19783;BME280;10051;40.294;-3.754;2023-08-17T10:47:23;94049.81;;;34.92;17.19
19783;BME280;10051;40.294;-3.754;2023-08-17T10:49:50;94042.84;;;34.91;17.28
19783;BME280;10051;40.294;-3.754;2023-08-17T10:52:26;94023.53;;;34.86;17.42
19783;BME280;10051;40.294;-3.754;2023-08-17T10:54:52;94050.00;;;35.11;17.57
19783;BME280;10051;40.294;-3.754;2023-08-17T10:57:32;94030.59;;;35.09;17.21
19783;BME280;10051;40.294;-3.754;2023-08-17T11:00:20;94049.53;;;35.25;17.66
19783;BME280;10051;40.294;-3.754;2023-08-17T11:02:57;94000.56;;;35.09;17.14
19783;BME280;10051;40.294;-3.754;2023-08-17T11:05:47;94054.31;;;35.47;16.80
19783;BME280;10051;40.294;-3.754;2023-08-17T11:08:32;94047.09;;;35.53;16.13
19783;BME280;10051;40.294;-3.754;2023-08-17T11:13:30;94044.06;;;35.61;15.66
19783;BME280;10051;40.294;-3.754;2023-08-17T11:15:58;94033.31;;;35.44;15.35
19783;BME280;10051;40.294;-3.754;2023-08-17T11:18:26;94000.03;;;35.23;15.51
19783;BME280;10051;40.294;-3.754;2023-08-17T11:20:53;94019.25;;;35.33;15.74
19783;BME280;10051;40.294;-3.754;2023-08-17T11:23:19;94033.88;;;35.39;16.01
19783;BME280;10051;40.294;-3.754;2023-08-17T11:25:46;94017.34;;;35.42;15.95
19783;BME280;10051;40.294;-3.754;2023-08-17T11:28:14;94022.69;;;35.46;15.76
19783;BME280;10051;40.294;-3.754;2023-08-17T11:30:45;94015.16;;;35.50;16.48
19783;BME280;10051;40.294;-3.754;2023-08-17T11:33:13;93989.50;;;35.35;16.47
19783;BME280;10051;40.294;-3.754;2023-08-17T11:35:42;93978.25;;;35.33;16.08
19783;BME280;10051;40.294;-3.754;2023-08-17T11:38:08;93998.31;;;35.52;16.57
19783;BME280;10051;40.294;-3.754;2023-08-17T11:40:38;94022.00;;;35.77;16.65
19783;BME280;10051;40.294;-3.754;2023-08-17T11:43:09;93972.66;;;35.49;16.13
19783;BME280;10051;40.294;-3.754;2023-08-17T11:45:36;94010.94;;;35.81;16.96
19783;BME280;10051;40.294;-3.754;2023-08-17T11:48:05;94011.44;;;35.88;16.69
19783;BME280;10051;40.294;-3.754;2023-08-17T11:50:31;94018.44;;;35.90;16.70
19783;BME280;10051;40.294;-3.754;2023-08-17T11:53:00;93981.47;;;35.76;16.36
19783;BME280;10051;40.294;-3.754;2023-08-17T11:55:27;93990.22;;;35.93;16.10
19783;BME280;10051;40.294;-3.754;2023-08-17T11:57:53;94006.97;;;36.04;16.63
19783;BME280;10051;40.294;-3.754;2023-08-17T12:00:20;94006.41;;;36.09;16.16
19783;BME280;10051;40.294;-3.754;2023-08-17T12:02:50;93985.09;;;36.04;16.38
19783;BME280;10051;40.294;-3.754;2023-08-17T12:05:21;93975.38;;;36.03;16.88
19783;BME280;10051;40.294;-3.754;2023-08-17T12:07:50;94003.75;;;36.28;15.98
19783;BME280;10051;40.294;-3.754;2023-08-17T12:10:17;94007.38;;;36.25;16.85
19783;BME280;10051;40.294;-3.754;2023-08-17T12:12:43;93995.22;;;36.26;16.40
19783;BME280;10051;40.294;-3.754;2023-08-17T12:15:09;93991.88;;;36.22;15.98
19783;BME280;10051;40.294;-3.754;2023-08-17T12:17:35;94009.34;;;36.24;16.49
19783;BME280;10051;40.294;-3.754;2023-08-17T12:20:06;94008.31;;;36.31;16.21
19783;BME280;10051;40.294;-3.754;2023-08-17T12:22:32;93955.19;;;36.10;16.33
19783;BME280;10051;40.294;-3.754;2023-08-17T12:24:58;93993.13;;;36.30;16.50
19783;BME280;10051;40.294;-3.754;2023-08-17T12:27:24;94008.69;;;36.42;15.81
19783;BME280;10051;40.294;-3.754;2023-08-17T12:29:50;94013.66;;;36.35;15.99
19783;BME280;10051;40.294;-3.754;2023-08-17T12:32:18;93981.03;;;36.09;16.21
19783;BME280;10051;40.294;-3.754;2023-08-17T12:34:44;93989.56;;;36.11;16.21
19783;BME280;10051;40.294;-3.754;2023-08-17T12:37:11;93979.59;;;35.95;16.58
19783;BME280;10051;40.294;-3.754;2023-08-17T12:39:38;93998.06;;;36.13;16.52
19783;BME280;10051;40.294;-3.754;2023-08-17T12:42:07;93989.25;;;36.09;16.38
19783;BME280;10051;40.294;-3.754;2023-08-17T12:44:32;93993.97;;;36.17;16.71
19783;BME280;10051;40.294;-3.754;2023-08-17T12:46:58;93979.69;;;36.13;16.29
19783;BME280;10051;40.294;-3.754;2023-08-17T12:49:24;93965.84;;;36.08;16.38
19783;BME280;10051;40.294;-3.754;2023-08-17T12:51:50;93991.28;;;36.27;16.55
19783;BME280;10051;40.294;-3.754;2023-08-17T12:54:17;93976.03;;;36.16;16.06
19783;BME280;10051;40.294;-3.754;2023-08-17T12:56:44;93977.56;;;36.17;15.82
19783;BME280;10051;40.294;-3.754;2023-08-17T12:59:10;93981.78;;;36.09;16.36
19783;BME280;10051;40.294;-3.754;2023-08-17T13:01:39;93978.19;;;36.22;16.68
19783;BME280;10051;40.294;-3.754;2023-08-17T13:04:05;93966.34;;;36.25;16.67
19783;BME280;10051;40.294;-3.754;2023-08-17T13:06:31;93981.03;;;36.50;16.96
19783;BME280;10051;40.294;-3.754;2023-08-17T13:08:57;93972.38;;;36.51;16.28
19783;BME280;10051;40.294;-3.754;2023-08-17T13:11:24;93970.69;;;36.54;16.84
19783;BME280;10051;40.294;-3.754;2023-08-17T13:13:50;93978.34;;;36.68;15.71
19783;BME280;10051;40.294;-3.754;2023-08-17T13:16:19;93974.25;;;36.64;16.25
19783;BME280;10051;40.294;-3.754;2023-08-17T13:18:46;93944.94;;;36.42;16.63
19783;BME280;10051;40.294;-3.754;2023-08-17T13:21:16;93943.00;;;36.42;16.63
19783;BME280;10051;40.294;-3.754;2023-08-17T13:23:49;93915.56;;;36.24;17.06
19783;BME280;10051;40.294;-3.754;2023-08-17T13:26:15;93915.28;;;36.31;17.08
19783;BME280;10051;40.294;-3.754;2023-08-17T13:28:51;93920.59;;;36.35;17.46
19783;BME280;10051;40.294;-3.754;2023-08-17T13:31:17;93961.00;;;36.71;16.71
19783;BME280;10051;40.294;-3.754;2023-08-17T13:33:43;93963.75;;;36.71;16.66
19783;BME280;10051;40.294;-3.754;2023-08-17T13:36:09;93953.56;;;36.63;16.86
19783;BME280;10051;40.294;-3.754;2023-08-17T13:38:35;93955.50;;;36.62;16.35
19783;BME280;10051;40.294;-3.754;2023-08-17T13:41:01;93925.16;;;36.28;16.76
19783;BME280;10051;40.294;-3.754;2023-08-17T13:43:26;93931.75;;;36.40;17.70
19783;BME280;10051;40.294;-3.754;2023-08-17T13:45:52;93922.16;;;36.45;17.42
19783;BME280;10051;40.294;-3.754;2023-08-17T13:48:18;93921.44;;;36.54;17.72
19783;BME280;10051;40.294;-3.754;2023-08-17T13:50:44;93924.81;;;36.67;17.00
19783;BME280;10051;40.294;-3.754;2023-08-17T13:53:10;93936.06;;;36.79;16.71
19783;BME280;10051;40.294;-3.754;2023-08-17T13:55:36;93908.06;;;36.56;16.48
19783;BME280;10051;40.294;-3.754;2023-08-17T13:58:01;93919.47;;;36.64;16.50